createdAt,value
2024-02-24T00:01:57.230Z,18.35
2024-02-24T00:04:24.704Z,18.35
2024-02-24T00:06:52.680Z,18.35
2024-02-24T00:09:20.380Z,18.44
2024-02-24T00:11:48.656Z,18.53
2024-02-24T00:14:16.473Z,18.50
2024-02-24T00:16:44.279Z,18.40
2024-02-24T00:19:11.759Z,18.37
2024-02-24T00:21:39.522Z,18.43
2024-02-24T00:24:06.985Z,18.49
2024-02-24T00:26:34.351Z,18.51
2024-02-24T00:29:01.775Z,18.62
2024-02-24T00:31:29.142Z,18.65
2024-02-24T00:33:56.465Z,18.65
2024-02-24T00:36:24.039Z,18.64
2024-02-24T00:38:51.711Z,18.63
2024-02-24T00:41:19.207Z,18.62
2024-02-24T00:43:46.652Z,18.61
2024-02-24T00:46:14.031Z,18.62
2024-02-24T00:48:42.457Z,18.62
2024-02-24T00:51:09.906Z,18.60
2024-02-24T00:53:37.354Z,18.59
2024-02-24T00:56:05.312Z,18.60
2024-02-24T00:58:32.682Z,18.61
2024-02-24T01:01:00.429Z,18.61
2024-02-24T01:03:27.888Z,18.60
2024-02-24T01:05:55.644Z,18.59
2024-02-24T01:08:23.043Z,18.59
2024-02-24T01:10:50.804Z,18.59
2024-02-24T01:13:20.695Z,18.57
2024-02-24T01:15:48.558Z,18.57
2024-02-24T01:18:16.075Z,18.54
2024-02-24T01:20:49.557Z,18.54
2024-02-24T01:23:17.861Z,18.52
2024-02-24T01:25:45.622Z,18.52
2024-02-24T01:28:13.030Z,18.48
2024-02-24T01:30:40.415Z,18.50
2024-02-24T01:33:08.292Z,18.49
2024-02-24T01:35:36.765Z,18.48
2024-02-24T01:38:06.049Z,18.44
2024-02-24T01:40:33.438Z,18.44
2024-02-24T01:43:00.833Z,18.44
2024-02-24T01:45:28.296Z,18.40
2024-02-24T01:47:56.120Z,18.39
2024-02-24T01:50:25.173Z,18.39
2024-02-24T01:52:54.054Z,18.37
2024-02-24T01:55:21.571Z,18.36
2024-02-24T01:57:50.985Z,18.36
2024-02-24T02:00:18.525Z,18.34
2024-02-24T02:02:46.863Z,18.32
2024-02-24T02:05:14.903Z,18.31
2024-02-24T02:07:42.380Z,18.30
2024-02-24T02:10:09.907Z,18.28
2024-02-24T02:12:37.785Z,18.28
2024-02-24T02:15:05.954Z,18.27
2024-02-24T02:17:34.546Z,18.27
2024-02-24T02:20:06.161Z,18.24
2024-02-24T02:22:33.646Z,18.23
2024-02-24T02:25:02.489Z,18.21
2024-02-24T02:27:31.246Z,18.20
2024-02-24T02:30:01.455Z,18.18
2024-02-24T02:32:29.641Z,18.18
2024-02-24T02:34:57.470Z,18.16
2024-02-24T02:37:24.819Z,18.15
2024-02-24T02:39:52.728Z,18.15
2024-02-24T02:42:20.148Z,18.15
2024-02-24T02:44:47.550Z,18.14
2024-02-24T02:47:19.894Z,18.13
2024-02-24T02:49:51.235Z,18.12
2024-02-24T02:52:18.662Z,18.12
2024-02-24T02:54:46.171Z,18.14
2024-02-24T02:57:13.515Z,18.14
2024-02-24T02:59:41.010Z,18.15
2024-02-24T03:02:08.683Z,18.15
2024-02-24T03:04:36.077Z,18.16
2024-02-24T03:07:03.421Z,18.15
2024-02-24T03:09:30.845Z,18.15
2024-02-24T03:11:58.735Z,18.16
2024-02-24T03:14:26.231Z,18.15
2024-02-24T03:16:55.321Z,18.13
2024-02-24T03:19:23.734Z,18.12
2024-02-24T03:21:51.390Z,18.12
2024-02-24T03:24:18.782Z,18.10
2024-02-24T03:26:46.754Z,18.08
2024-02-24T03:29:14.270Z,18.09
2024-02-24T03:31:41.932Z,18.09
2024-02-24T03:34:09.417Z,18.08
2024-02-24T03:36:36.825Z,18.07
2024-02-24T03:39:05.038Z,18.06
2024-02-24T03:41:33.103Z,18.06
2024-02-24T03:44:00.504Z,18.03
2024-02-24T03:46:27.873Z,18.04
2024-02-24T03:48:55.703Z,18.02
2024-02-24T03:51:23.563Z,18.02
2024-02-24T03:53:51.182Z,18.01
2024-02-24T03:56:18.597Z,17.99
2024-02-24T03:58:46.631Z,17.98
2024-02-24T04:01:14.348Z,17.97
2024-02-24T04:03:41.822Z,17.95
2024-02-24T04:06:09.442Z,17.95
2024-02-24T04:08:37.673Z,17.94
2024-02-24T04:11:05.519Z,17.92
2024-02-24T04:13:33.002Z,17.91
2024-02-24T04:16:00.853Z,17.92
2024-02-24T04:18:28.447Z,17.91
2024-02-24T04:20:56.251Z,17.89
2024-02-24T04:23:23.659Z,17.87
2024-02-24T04:25:51.235Z,17.87
2024-02-24T04:28:21.932Z,17.88
2024-02-24T04:30:50.721Z,17.85
2024-02-24T04:33:21.307Z,17.84
2024-02-24T04:35:49.016Z,17.85
2024-02-24T04:38:16.782Z,17.83
2024-02-24T04:40:44.295Z,17.83
2024-02-24T04:43:12.096Z,17.82
2024-02-24T04:45:39.521Z,17.82
2024-02-24T04:48:07.544Z,17.81
2024-02-24T04:50:35.145Z,17.80
2024-02-24T04:53:03.223Z,17.80
2024-02-24T04:55:30.580Z,17.83
2024-02-24T04:57:57.963Z,17.83
2024-02-24T05:00:26.517Z,17.83
2024-02-24T05:02:54.162Z,17.85
2024-02-24T05:05:21.906Z,17.86
2024-02-24T05:07:49.403Z,17.84
2024-02-24T05:10:17.115Z,17.85
2024-02-24T05:12:49.538Z,17.86
2024-02-24T05:15:19.876Z,17.87
2024-02-24T05:17:47.410Z,17.86
2024-02-24T05:20:15.358Z,17.85
2024-02-24T05:22:42.819Z,17.84
2024-02-24T05:25:10.805Z,17.82
2024-02-24T05:27:38.517Z,17.82
2024-02-24T05:30:06.391Z,17.81
2024-02-24T05:32:33.856Z,17.82
2024-02-24T05:35:01.319Z,17.81
2024-02-24T05:37:28.943Z,17.81
2024-02-24T05:39:56.954Z,17.80
2024-02-24T05:42:24.428Z,17.78
2024-02-24T05:44:52.034Z,17.77
2024-02-24T05:47:19.513Z,17.77
2024-02-24T05:49:47.272Z,17.76
2024-02-24T05:52:14.776Z,17.74
2024-02-24T05:54:42.187Z,17.74
2024-02-24T05:57:09.655Z,17.73
2024-02-24T05:59:37.144Z,17.72
2024-02-24T06:02:04.850Z,17.71
2024-02-24T06:04:32.304Z,17.70
2024-02-24T06:06:59.864Z,17.69
2024-02-24T06:09:27.190Z,17.67
2024-02-24T06:11:55.009Z,17.66
2024-02-24T06:14:22.437Z,17.67
2024-02-24T06:16:49.953Z,17.66
2024-02-24T06:19:17.451Z,17.64
2024-02-24T06:21:45.154Z,17.64
2024-02-24T06:24:12.475Z,17.61
2024-02-24T06:26:39.996Z,17.59
2024-02-24T06:29:07.585Z,17.61
2024-02-24T06:31:35.072Z,17.59
2024-02-24T06:34:05.176Z,17.58
2024-02-24T06:36:34.630Z,17.58
2024-02-24T06:39:02.356Z,17.57
2024-02-24T06:41:29.845Z,17.56
2024-02-24T06:43:57.479Z,17.59
2024-02-24T06:46:25.505Z,17.57
2024-02-24T06:48:53.477Z,17.57
2024-02-24T06:51:22.046Z,17.59
2024-02-24T06:53:49.484Z,17.60
2024-02-24T06:56:20.470Z,17.63
2024-02-24T06:58:48.026Z,17.63
2024-02-24T07:01:21.459Z,17.64
2024-02-24T07:03:48.814Z,17.65
2024-02-24T07:06:17.358Z,17.65
2024-02-24T07:08:45.048Z,17.64
2024-02-24T07:11:12.678Z,17.64
2024-02-24T07:13:40.150Z,17.64
2024-02-24T07:16:08.675Z,17.63
2024-02-24T07:18:37.769Z,17.63
2024-02-24T07:21:05.611Z,17.63
2024-02-24T07:23:33.122Z,17.63
2024-02-24T07:26:01.947Z,17.62
2024-02-24T07:28:29.630Z,17.61
2024-02-24T07:30:57.029Z,17.61
2024-02-24T07:33:24.593Z,17.60
2024-02-24T07:35:52.153Z,17.59
2024-02-24T07:38:19.934Z,17.59
2024-02-24T07:40:47.299Z,17.58
2024-02-24T07:43:14.732Z,17.58
2024-02-24T07:45:43.079Z,17.56
2024-02-24T07:48:11.513Z,17.57
2024-02-24T07:50:38.985Z,17.55
2024-02-24T07:53:08.361Z,17.55
2024-02-24T07:55:35.793Z,17.55
2024-02-24T07:58:03.366Z,17.54
2024-02-24T08:00:31.078Z,17.53
2024-02-24T08:02:58.480Z,17.53
2024-02-24T08:05:25.854Z,17.52
2024-02-24T08:07:53.368Z,17.51
2024-02-24T08:10:21.180Z,17.49
2024-02-24T08:12:48.674Z,17.49
2024-02-24T08:15:16.104Z,17.48
2024-02-24T08:17:43.580Z,17.48
2024-02-24T08:20:12.221Z,17.46
2024-02-24T08:22:40.473Z,17.46
2024-02-24T08:25:08.308Z,17.45
2024-02-24T08:27:35.728Z,17.44
2024-02-24T08:30:03.546Z,17.44
2024-02-24T08:32:31.355Z,17.43
2024-02-24T08:34:58.859Z,17.42
2024-02-24T08:37:26.297Z,17.40
2024-02-24T08:39:53.962Z,17.41
2024-02-24T08:42:21.313Z,17.41
2024-02-24T08:44:48.713Z,17.42
2024-02-24T08:47:16.205Z,17.42
2024-02-24T08:49:44.418Z,17.42
2024-02-24T08:52:12.370Z,17.43
2024-02-24T08:54:40.051Z,17.44
2024-02-24T08:57:07.904Z,17.45
2024-02-24T08:59:35.375Z,17.47
2024-02-24T09:02:03.154Z,17.48
2024-02-24T09:04:30.696Z,17.48
2024-02-24T09:06:58.174Z,17.48
2024-02-24T09:09:25.567Z,17.49
2024-02-24T09:11:53.398Z,17.49
2024-02-24T09:14:20.915Z,17.49
2024-02-24T09:16:48.488Z,17.49
2024-02-24T09:19:15.936Z,17.49
2024-02-24T09:21:46.875Z,17.48
2024-02-24T09:24:14.334Z,17.48
2024-02-24T09:26:41.793Z,17.48
2024-02-24T09:29:09.273Z,17.47
2024-02-24T09:31:36.631Z,17.46
2024-02-24T09:34:04.572Z,17.46
2024-02-24T09:36:32.506Z,17.46
2024-02-24T09:39:01.891Z,17.45
2024-02-24T09:41:29.267Z,17.44
2024-02-24T09:43:57.017Z,17.44
2024-02-24T09:46:24.447Z,17.43
2024-02-24T09:48:52.636Z,17.43
2024-02-24T09:51:20.246Z,17.43
2024-02-24T09:53:47.677Z,17.43
2024-02-24T09:56:19.279Z,17.42
2024-02-24T09:58:47.156Z,17.41
2024-02-24T10:01:14.994Z,17.40
2024-02-24T10:03:43.893Z,17.40
2024-02-24T10:06:12.661Z,17.40
2024-02-24T10:08:40.270Z,17.39
2024-02-24T10:11:07.942Z,17.39
2024-02-24T10:13:36.895Z,17.37
2024-02-24T10:16:06.883Z,17.37
2024-02-24T10:18:42.503Z,17.36
2024-02-24T10:21:10.053Z,17.35
2024-02-24T10:23:37.458Z,17.35
2024-02-24T10:26:05.114Z,17.34
2024-02-24T10:28:32.722Z,17.34
2024-02-24T10:31:00.437Z,17.33
2024-02-24T10:33:29.389Z,17.32
2024-02-24T10:35:57.092Z,17.33
2024-02-24T10:38:34.572Z,17.31
2024-02-24T10:41:08.030Z,17.31
2024-02-24T10:43:36.096Z,17.31
2024-02-24T10:46:03.930Z,17.31
2024-02-24T10:48:31.508Z,17.32
2024-02-24T10:50:59.279Z,17.33
2024-02-24T10:53:32.624Z,17.34
2024-02-24T10:56:02.913Z,17.36
2024-02-24T10:58:30.562Z,17.37
2024-02-24T11:00:58.286Z,17.39
2024-02-24T11:03:25.861Z,17.40
2024-02-24T11:05:53.701Z,17.41
2024-02-24T11:08:37.936Z,17.41
2024-02-24T11:11:12.552Z,17.42
2024-02-24T11:13:55.922Z,17.42
2024-02-24T11:16:37.190Z,17.42
2024-02-24T11:19:13.459Z,17.41
2024-02-24T11:22:01.818Z,17.41
2024-02-24T11:24:35.978Z,17.41
2024-02-24T11:27:04.353Z,17.40
2024-02-24T11:29:34.233Z,17.40
2024-02-24T11:32:05.586Z,17.40
2024-02-24T11:34:35.234Z,17.40
2024-02-24T11:37:02.935Z,17.40
2024-02-24T11:39:30.939Z,17.39
2024-02-24T11:41:58.657Z,17.39
2024-02-24T11:44:26.212Z,17.37
2024-02-24T11:46:54.591Z,17.38
2024-02-24T11:49:22.424Z,17.36
2024-02-24T11:51:49.944Z,17.35
2024-02-24T11:54:18.252Z,17.36
2024-02-24T11:56:45.865Z,17.35
2024-02-24T11:59:13.359Z,17.34
2024-02-24T12:01:41.547Z,17.35
2024-02-24T12:04:09.021Z,17.33
2024-02-24T12:06:36.584Z,17.33
2024-02-24T12:09:04.167Z,17.33
2024-02-24T12:11:32.473Z,17.32
2024-02-24T12:13:59.919Z,17.32
2024-02-24T12:16:29.081Z,17.32
2024-02-24T12:18:57.739Z,17.31
2024-02-24T12:21:26.945Z,17.31
2024-02-24T12:23:56.537Z,17.31
2024-02-24T12:26:26.256Z,17.30
2024-02-24T12:28:54.113Z,17.29
2024-02-24T12:31:21.711Z,17.29
2024-02-24T12:33:52.190Z,17.28
2024-02-24T12:36:19.724Z,17.27
2024-02-24T12:38:49.887Z,17.27
2024-02-24T12:41:17.921Z,17.27
2024-02-24T12:43:45.523Z,17.28
2024-02-24T12:46:12.953Z,17.29
2024-02-24T12:48:43.628Z,17.30
2024-02-24T12:51:12.907Z,17.31
2024-02-24T12:53:42.720Z,17.33
2024-02-24T12:56:10.676Z,17.34
2024-02-24T12:58:40.139Z,17.35
2024-02-24T13:01:09.879Z,17.38
2024-02-24T13:03:37.679Z,17.38
2024-02-24T13:06:05.377Z,17.39
2024-02-24T13:08:33.007Z,17.39
2024-02-24T13:11:01.003Z,17.39
2024-02-24T13:13:28.658Z,17.40
2024-02-24T13:15:56.035Z,17.39
2024-02-24T13:18:23.930Z,17.39
2024-02-24T13:20:51.825Z,17.40
2024-02-24T13:23:19.294Z,17.39
2024-02-24T13:25:46.680Z,17.39
2024-02-24T13:28:14.925Z,17.38
2024-02-24T13:30:42.302Z,17.39
2024-02-24T13:33:09.927Z,17.38
2024-02-24T13:35:37.379Z,17.38
2024-02-24T13:38:04.963Z,17.38
2024-02-24T13:40:32.974Z,17.38
2024-02-24T13:43:01.408Z,17.36
2024-02-24T13:45:28.845Z,17.35
2024-02-24T13:47:56.323Z,17.35
2024-02-24T13:50:24.865Z,17.35
2024-02-24T13:52:52.313Z,17.35
2024-02-24T13:55:19.701Z,17.34
2024-02-24T13:57:47.296Z,17.34
2024-02-24T14:00:16.100Z,17.33
2024-02-24T14:02:43.558Z,17.34
2024-02-24T14:05:12.689Z,17.33
2024-02-24T14:07:40.628Z,17.32
2024-02-24T14:10:08.188Z,17.31
2024-02-24T14:12:35.662Z,17.31
2024-02-24T14:15:03.559Z,17.30
2024-02-24T14:17:31.883Z,17.30
2024-02-24T14:20:01.909Z,17.30
2024-02-24T14:22:33.069Z,17.29
2024-02-24T14:25:02.862Z,17.28
2024-02-24T14:27:30.314Z,17.28
2024-02-24T14:29:57.711Z,17.28
2024-02-24T14:32:25.531Z,17.28
2024-02-24T14:34:52.916Z,17.27
2024-02-24T14:37:21.138Z,17.27
2024-02-24T14:39:48.835Z,17.27
2024-02-24T14:42:16.338Z,17.28
2024-02-24T14:44:43.719Z,17.30
2024-02-24T14:47:11.424Z,17.31
2024-02-24T14:49:40.281Z,17.32
2024-02-24T14:52:10.448Z,17.34
2024-02-24T14:54:42.204Z,17.34
2024-02-24T14:57:13.885Z,17.36
2024-02-24T14:59:42.405Z,17.38
2024-02-24T15:02:11.119Z,17.38
2024-02-24T15:04:39.731Z,17.40
2024-02-24T15:07:07.528Z,17.39
2024-02-24T15:09:34.958Z,17.39
2024-02-24T15:12:02.814Z,17.40
2024-02-24T15:14:30.261Z,17.38
2024-02-24T15:16:58.642Z,17.39
2024-02-24T15:19:27.378Z,17.40
2024-02-24T15:21:55.314Z,17.40
2024-02-24T15:24:22.782Z,17.41
2024-02-24T15:26:50.262Z,17.40
2024-02-24T15:29:18.529Z,17.40
2024-02-24T15:31:46.241Z,17.40
2024-02-24T15:34:13.858Z,17.39
2024-02-24T15:36:41.731Z,17.38
2024-02-24T15:39:10.169Z,17.38
2024-02-24T15:41:38.654Z,17.37
2024-02-24T15:44:07.406Z,17.38
2024-02-24T15:46:35.258Z,17.35
2024-02-24T15:49:03.144Z,17.35
2024-02-24T15:51:30.701Z,17.34
2024-02-24T15:53:58.253Z,17.34
2024-02-24T15:56:26.065Z,17.33
2024-02-24T15:58:53.647Z,17.34
2024-02-24T16:01:23.656Z,17.34
2024-02-24T16:03:51.254Z,17.33
2024-02-24T16:06:19.417Z,17.32
2024-02-24T16:08:48.004Z,17.32
2024-02-24T16:11:15.976Z,17.32
2024-02-24T16:13:43.594Z,17.31
2024-02-24T16:16:14.662Z,17.31
2024-02-24T16:18:42.759Z,17.30
2024-02-24T16:21:10.897Z,17.29
2024-02-24T16:23:38.425Z,17.28
2024-02-24T16:26:05.864Z,17.28
2024-02-24T16:28:33.420Z,17.29
2024-02-24T16:31:01.035Z,17.28
2024-02-24T16:33:28.746Z,17.29
2024-02-24T16:35:56.705Z,17.29
2024-02-24T16:38:24.579Z,17.30
2024-02-24T16:40:51.952Z,17.31
2024-02-24T16:43:19.439Z,17.32
2024-02-24T16:45:46.780Z,17.33
2024-02-24T16:48:17.775Z,17.35
2024-02-24T16:50:46.258Z,17.37
2024-02-24T16:53:13.761Z,17.38
2024-02-24T16:55:41.220Z,17.38
2024-02-24T16:58:08.664Z,17.40
2024-02-24T17:00:36.402Z,17.38
2024-02-24T17:03:04.165Z,17.40
2024-02-24T17:05:31.785Z,17.40
2024-02-24T17:07:59.226Z,17.41
2024-02-24T17:10:26.959Z,17.41
2024-02-24T17:12:54.824Z,17.40
2024-02-24T17:15:22.567Z,17.40
2024-02-24T17:17:50.222Z,17.41
2024-02-24T17:20:17.896Z,17.40
2024-02-24T17:22:45.376Z,17.41
2024-02-24T17:25:14.291Z,17.41
2024-02-24T17:27:41.677Z,17.41
2024-02-24T17:30:09.485Z,17.40
2024-02-24T17:32:37.956Z,17.40
2024-02-24T17:35:06.322Z,17.39
2024-02-24T17:37:34.384Z,17.39
2024-02-24T17:40:02.341Z,17.38
2024-02-24T17:42:29.688Z,17.37
2024-02-24T17:44:57.309Z,17.37
2024-02-24T17:47:24.798Z,17.36
2024-02-24T17:49:52.752Z,17.36
2024-02-24T17:52:20.182Z,17.36
2024-02-24T17:54:47.631Z,17.35
2024-02-24T17:57:15.148Z,17.34
2024-02-24T17:59:42.592Z,17.34
2024-02-24T18:02:10.287Z,17.33
2024-02-24T18:04:38.652Z,17.34
2024-02-24T18:07:06.728Z,17.34
2024-02-24T18:09:35.791Z,17.33
2024-02-24T18:12:03.656Z,17.32
2024-02-24T18:14:31.198Z,17.31
2024-02-24T18:16:59.166Z,17.30
2024-02-24T18:19:26.819Z,17.30
2024-02-24T18:21:54.621Z,17.30
2024-02-24T18:24:22.088Z,17.30
2024-02-24T18:26:49.798Z,17.30
2024-02-24T18:29:17.325Z,17.29
2024-02-24T18:31:45.095Z,17.31
2024-02-24T18:34:13.938Z,17.31
2024-02-24T18:36:41.475Z,17.32
2024-02-24T18:39:10.154Z,17.34
2024-02-24T18:41:37.886Z,17.35
2024-02-24T18:44:07.849Z,17.35
2024-02-24T18:46:37.247Z,17.38
2024-02-24T18:49:04.918Z,17.39
2024-02-24T18:51:32.413Z,17.41
2024-02-24T18:53:59.969Z,17.41
2024-02-24T18:56:27.896Z,17.41
2024-02-24T18:58:55.378Z,17.41
2024-02-24T19:01:23.066Z,17.43
2024-02-24T19:03:50.629Z,17.42
2024-02-24T19:06:19.654Z,17.42
2024-02-24T19:08:47.315Z,17.43
2024-02-24T19:11:15.033Z,17.42
2024-02-24T19:13:42.463Z,17.42
2024-02-24T19:16:09.950Z,17.41
2024-02-24T19:18:37.672Z,17.43
2024-02-24T19:21:06.103Z,17.42
2024-02-24T19:23:37.140Z,17.42
2024-02-24T19:26:04.987Z,17.41
2024-02-24T19:28:32.465Z,17.41
2024-02-24T19:31:00.183Z,17.40
2024-02-24T19:33:27.721Z,17.39
2024-02-24T19:35:55.431Z,17.39
2024-02-24T19:38:24.995Z,17.38
2024-02-24T19:40:52.583Z,17.38
2024-02-24T19:43:19.991Z,17.38
2024-02-24T19:45:47.406Z,17.38
2024-02-24T19:48:15.444Z,17.36
2024-02-24T19:50:48.750Z,17.35
2024-02-24T19:53:16.607Z,17.36
2024-02-24T19:55:44.040Z,17.35
2024-02-24T19:58:20.654Z,17.35
2024-02-24T20:00:52.550Z,17.34
2024-02-24T20:03:19.870Z,17.33
2024-02-24T20:05:47.327Z,17.33
2024-02-24T20:08:15.300Z,17.31
2024-02-24T20:10:42.780Z,17.32
2024-02-24T20:13:10.154Z,17.31
2024-02-24T20:15:37.530Z,17.31
2024-02-24T20:18:06.181Z,17.30
2024-02-24T20:20:33.742Z,17.29
2024-02-24T20:23:01.144Z,17.29
2024-02-24T20:25:28.611Z,17.27
2024-02-24T20:27:55.982Z,17.29
2024-02-24T20:30:24.041Z,17.29
2024-02-24T20:32:54.517Z,17.29
2024-02-24T20:35:24.287Z,17.29
2024-02-24T20:37:51.777Z,17.32
2024-02-24T20:40:19.372Z,17.33
2024-02-24T20:42:46.697Z,17.34
2024-02-24T20:45:14.186Z,17.36
2024-02-24T20:47:41.746Z,17.38
2024-02-24T20:50:09.777Z,17.38
2024-02-24T20:52:37.539Z,17.39
2024-02-24T20:55:05.568Z,17.40
2024-02-24T20:57:33.033Z,17.40
2024-02-24T21:00:00.689Z,17.40
2024-02-24T21:02:28.528Z,17.41
2024-02-24T21:04:55.941Z,17.41
2024-02-24T21:07:23.252Z,17.41
2024-02-24T21:09:50.861Z,17.41
2024-02-24T21:12:19.193Z,17.41
2024-02-24T21:14:46.964Z,17.41
2024-02-24T21:17:14.514Z,17.41
2024-02-24T21:19:42.087Z,17.40
2024-02-24T21:22:09.999Z,17.40
2024-02-24T21:24:37.285Z,17.39
2024-02-24T21:27:04.801Z,17.38
2024-02-24T21:29:32.625Z,17.38
2024-02-24T21:32:00.140Z,17.38
2024-02-24T21:34:27.792Z,17.36
2024-02-24T21:36:55.343Z,17.36
2024-02-24T21:39:23.007Z,17.36
2024-02-24T21:41:50.476Z,17.35
2024-02-24T21:44:17.888Z,17.35
2024-02-24T21:46:45.393Z,17.34
2024-02-24T21:49:13.242Z,17.33
2024-02-24T21:51:40.699Z,17.34
2024-02-24T21:54:11.223Z,17.33
2024-02-24T21:56:38.953Z,17.32
2024-02-24T21:59:06.271Z,17.31
2024-02-24T22:01:34.226Z,17.31
2024-02-24T22:04:04.159Z,17.30
2024-02-24T22:06:31.756Z,17.30
2024-02-24T22:08:59.313Z,17.29
2024-02-24T22:11:26.931Z,17.29
2024-02-24T22:13:54.611Z,17.29
2024-02-24T22:16:22.289Z,17.29
2024-02-24T22:18:52.253Z,17.27
2024-02-24T22:21:19.819Z,17.27
2024-02-24T22:23:51.441Z,17.25
2024-02-24T22:26:19.186Z,17.26
2024-02-24T22:28:46.587Z,17.26
2024-02-24T22:31:13.957Z,17.27
2024-02-24T22:33:41.558Z,17.27
2024-02-24T22:36:10.600Z,17.28
2024-02-24T22:38:38.268Z,17.28
2024-02-24T22:41:06.509Z,17.31
2024-02-24T22:43:34.415Z,17.33
2024-02-24T22:46:04.010Z,17.34
2024-02-24T22:48:31.534Z,17.35
2024-02-24T22:50:59.086Z,17.36
2024-02-24T22:53:27.153Z,17.38
2024-02-24T22:55:54.649Z,17.38
2024-02-24T22:58:22.083Z,17.38
2024-02-24T23:00:50.183Z,17.38
2024-02-24T23:03:19.678Z,17.37
2024-02-24T23:05:48.171Z,17.39
2024-02-24T23:08:15.866Z,17.37
2024-02-24T23:10:43.267Z,17.38
2024-02-24T23:13:10.836Z,17.38
2024-02-24T23:15:38.368Z,17.37
2024-02-24T23:18:06.345Z,17.36
2024-02-24T23:20:33.846Z,17.35
2024-02-24T23:23:02.018Z,17.35
2024-02-24T23:25:29.429Z,17.35
2024-02-24T23:27:56.739Z,17.34
2024-02-24T23:30:24.562Z,17.33
2024-02-24T23:32:51.978Z,17.33
2024-02-24T23:35:20.531Z,17.33
2024-02-24T23:37:47.891Z,17.32
2024-02-24T23:40:15.654Z,17.32
2024-02-24T23:42:43.044Z,17.31
2024-02-24T23:45:10.875Z,17.31
2024-02-24T23:47:38.446Z,17.30
2024-02-24T23:50:06.463Z,17.30
2024-02-24T23:52:34.029Z,17.29
2024-02-24T23:55:01.578Z,17.29
2024-02-24T23:57:33.807Z,17.29
